Time;durP1;ratioP1;P1;durP2;ratioP2;P2;SDS_P1;SDS_P2;PMS_P1;PMS_P2;Temp;Humidity;BMP_temperature;BMP_pressure;BME280_temperature;BME280_humidity;BME280_pressure;Samples;Min_cycle;Max_cycle;Signal;HPM_P1;HPM_P2
2022/04/01 00:00:28;;;;;;;7.13;1.97;;;;;;;;;;5054017;28;20156;-61
2022/04/01 00:02:55;;;;;;;;;;;;;;;;;;5057733;28;20131;-60
2022/04/01 00:05:22;;;;;;;5.50;1.83;;;;;;;;;;5061352;28;19920;-60
2022/04/01 00:07:48;;;;;;;8.82;2.25;;;;;;;;;;5060431;28;20096;-60
2022/04/01 00:10:15;;;;;;;4.88;1.58;;;;;;;;;;5062243;28;20144;-60
2022/04/01 00:12:43;;;;;;;6.13;1.95;;;;;;;;;;5059058;28;20135;-59
2022/04/01 00:15:12;;;;;;;4.37;1.90;;;;;;;;;;5058654;28;20136;-59
2022/04/01 00:17:44;;;;;;;2.70;2.00;;;;;;;;;;5063701;28;20076;-60
2022/04/01 00:20:13;;;;;;;5.23;1.73;;;;;;;;;;5060103;28;20523;-59
2022/04/01 00:22:40;;;;;;;3.03;1.80;;;;;;;;;;5062597;28;20121;-60
2022/04/01 00:25:07;;;;;;;6.18;1.60;;;;;;;;;;5061728;28;20769;-60
2022/04/01 00:27:33;;;;;;;5.13;1.70;;;;;;;;;;5063118;28;20037;-60
2022/04/01 00:30:00;;;;;;;3.97;1.75;;;;;;;;;;5061487;28;20056;-59
2022/04/01 00:32:29;;;;;;;3.60;1.60;;;;;;;;;;5058949;28;20076;-60
2022/04/01 00:34:56;;;;;;;3.65;1.77;;;;;;;;;;5067281;28;20123;-60
2022/04/01 00:37:23;;;;;;;2.78;1.33;;;;;;;;;;5062033;28;20084;-59
2022/04/01 00:39:52;;;;;;;4.50;1.80;;;;;;;;;;5060720;28;20094;-60
2022/04/01 00:42:18;;;;;;;5.33;1.87;;;;;;;;;;5062236;28;20152;-60
2022/04/01 00:44:45;;;;;;;4.53;1.42;;;;;;;;;;5063312;28;20131;-60
2022/04/01 00:47:17;;;;;;;3.07;1.30;;;;;;;;;;5061804;28;20420;-60
2022/04/01 00:49:44;;;;;;;10.38;2.13;;;;;;;;;;5059933;28;20107;-60
2022/04/01 00:52:10;;;;;;;;;;;;;;;;;;5058537;28;20046;-60
2022/04/01 00:54:44;;;;;;;3.93;1.97;;;;;;;;;;5056477;28;19964;-60
2022/04/01 00:57:13;;;;;;;6.55;1.70;;;;;;;;;;5059737;28;20092;-60
2022/04/01 00:59:40;;;;;;;4.07;1.53;;;;;;;;;;5060471;28;20479;-59
2022/04/01 01:02:16;;;;;;;5.90;2.17;;;;;;;;;;5060854;28;20416;-59
2022/04/01 01:04:42;;;;;;;5.17;2.00;;;;;;;;;;5058262;28;20173;-60
2022/04/01 01:07:09;;;;;;;5.00;1.48;;;;;;;;;;5049863;28;20732;-60
2022/04/01 01:09:38;;;;;;;5.83;2.10;;;;;;;;;;5061050;28;20049;-59
2022/04/01 01:12:06;;;;;;;5.93;2.08;;;;;;;;;;5059281;28;20099;-60
2022/04/01 01:14:36;;;;;;;3.23;1.60;;;;;;;;;;5061454;28;20103;-59
2022/04/01 01:17:05;;;;;;;5.97;2.13;;;;;;;;;;5060579;28;20203;-60
2022/04/01 01:19:32;;;;;;;4.03;1.43;;;;;;;;;;5060667;28;20082;-62
2022/04/01 01:21:58;;;;;;;4.63;1.67;;;;;;;;;;5061681;28;20143;-60
2022/04/01 01:24:32;;;;;;;7.70;2.17;;;;;;;;;;5061912;28;20085;-60
2022/04/01 01:26:59;;;;;;;4.50;2.00;;;;;;;;;;5063414;28;20139;-60
2022/04/01 01:29:30;;;;;;;8.80;1.90;;;;;;;;;;5061715;28;20305;-57
2022/04/01 01:31:58;;;;;;;2.10;1.80;;;;;;;;;;5058604;28;20083;-58
2022/04/01 01:34:26;;;;;;;3.43;2.03;;;;;;;;;;5058197;28;20055;-58
2022/04/01 01:37:00;;;;;;;6.47;2.00;;;;;;;;;;5059927;28;20124;-59
2022/04/01 01:39:27;;;;;;;3.90;1.77;;;;;;;;;;5061513;28;20131;-60
2022/04/01 01:41:53;;;;;;;3.65;2.40;;;;;;;;;;5058759;28;20056;-60
2022/04/01 01:44:21;;;;;;;2.20;1.60;;;;;;;;;;5057626;28;20139;-57
2022/04/01 01:46:47;;;;;;;;;;;;;;;;;;5061049;28;20132;-60
2022/04/01 01:49:13;;;;;;;3.77;1.90;;;;;;;;;;5060739;28;19924;-59
2022/04/01 01:57:12;;;;;;;4.27;2.10;;;;;;;;;;5056882;28;20500;-60
2022/04/01 01:59:39;;;;;;;3.40;1.98;;;;;;;;;;5057650;28;20073;-59
2022/04/01 02:02:07;;;;;;;4.75;1.92;;;;;;;;;;5057337;28;20144;-59
2022/04/01 02:04:41;;;;;;;6.10;1.90;;;;;;;;;;5058921;28;20127;-59
2022/04/01 02:07:08;;;;;;;5.82;2.03;;;;;;;;;;5058660;28;20076;-60
2022/04/01 02:09:35;;;;;;;6.05;2.13;;;;;;;;;;5061327;28;20094;-59
2022/04/01 02:12:07;;;;;;;3.03;1.70;;;;;;;;;;5058021;28;20176;-60
2022/04/01 02:14:34;;;;;;;2.40;1.60;;;;;;;;;;5057003;28;20498;-59
2022/04/01 02:17:01;;;;;;;2.97;1.65;;;;;;;;;;5058041;28;20048;-60
2022/04/01 02:19:30;;;;;;;3.67;1.60;;;;;;;;;;5057826;28;20393;-59
2022/04/01 02:21:57;;;;;;;3.00;1.97;;;;;;;;;;5057600;28;20618;-60
2022/04/01 02:24:24;;;;;;;7.38;1.98;;;;;;;;;;5060150;28;20127;-59
2022/04/01 02:26:52;;;;;;;11.53;2.33;;;;;;;;;;5057137;28;20496;-59
2022/04/01 02:29:19;;;;;;;3.40;1.83;;;;;;;;;;5053061;28;20148;-58
2022/04/01 02:31:50;;;;;;;3.95;1.70;;;;;;;;;;5058784;28;20515;-60
2022/04/01 02:34:18;;;;;;;4.70;2.20;;;;;;;;;;5059175;28;20098;-59
2022/04/01 02:36:45;;;;;;;3.10;1.90;;;;;;;;;;5059983;28;20082;-59
2022/04/01 02:39:11;;;;;;;3.63;2.00;;;;;;;;;;5056425;28;20140;-59
2022/04/01 02:41:44;;;;;;;4.50;1.87;;;;;;;;;;5055658;28;20575;-59
2022/04/01 02:44:14;;;;;;;7.63;2.15;;;;;;;;;;5059141;28;20135;-59
2022/04/01 02:46:42;;;;;;;4.07;1.90;;;;;;;;;;5057637;28;20140;-59
2022/04/01 02:49:11;;;;;;;3.50;1.93;;;;;;;;;;5061361;28;20123;-60
2022/04/01 02:51:44;;;;;;;6.73;2.80;;;;;;;;;;5058660;28;20087;-60
2022/04/01 02:54:11;;;;;;;6.07;2.10;;;;;;;;;;5055347;28;20135;-59
2022/04/01 02:56:38;;;;;;;5.75;1.80;;;;;;;;;;5056700;28;20067;-60
2022/04/01 02:59:12;;;;;;;3.00;2.07;;;;;;;;;;5058247;28;20176;-60
2022/04/01 03:01:39;;;;;;;3.67;1.83;;;;;;;;;;5059046;28;20053;-59
2022/04/01 03:04:10;;;;;;;4.60;2.20;;;;;;;;;;5055789;28;20052;-58
2022/04/01 03:06:43;;;;;;;5.50;2.03;;;;;;;;;;5058159;28;20448;-59
2022/04/01 03:09:10;;;;;;;5.60;1.90;;;;;;;;;;5057642;28;20062;-59
2022/04/01 03:11:36;;;;;;;5.55;1.98;;;;;;;;;;5056773;28;20132;-59
2022/04/01 03:14:04;;;;;;;6.28;2.38;;;;;;;;;;5054668;28;20132;-59
2022/04/01 03:16:30;;;;;;;3.20;2.20;;;;;;;;;;5055848;28;20087;-56
2022/04/01 03:18:57;;;;;;;5.15;2.03;;;;;;;;;;5057932;28;20446;-57
2022/04/01 03:21:24;;;;;;;5.68;2.10;;;;;;;;;;5057524;28;20140;-58
2022/04/01 03:23:51;;;;;;;4.28;2.20;;;;;;;;;;5058569;28;20132;-59
2022/04/01 03:26:17;;;;;;;;;;;;;;;;;;5059746;28;20048;-59
2022/04/01 03:28:51;;;;;;;3.57;1.77;;;;;;;;;;5062122;28;20434;-59
2022/04/01 03:31:19;;;;;;;7.07;1.93;;;;;;;;;;5061686;28;20060;-59
2022/04/01 03:33:46;;;;;;;5.13;2.35;;;;;;;;;;5055109;28;20072;-59
2022/04/01 03:36:15;;;;;;;4.20;2.10;;;;;;;;;;5056507;28;20044;-58
2022/04/01 03:38:42;;;;;;;6.75;2.22;;;;;;;;;;5059026;28;20040;-59
2022/04/01 03:41:10;;;;;;;3.17;1.92;;;;;;;;;;5060376;28;20137;-60
2022/04/01 03:43:38;;;;;;;2.73;1.90;;;;;;;;;;5051402;28;20083;-57
2022/04/01 03:46:08;;;;;;;5.97;1.80;;;;;;;;;;5059257;28;20107;-59
2022/04/01 03:48:39;;;;;;;5.13;2.10;;;;;;;;;;5060176;28;20049;-58
2022/04/01 03:51:06;;;;;;;4.67;2.00;;;;;;;;;;5061642;28;20084;-59
2022/04/01 03:53:34;;;;;;;8.27;2.00;;;;;;;;;;5044435;28;20087;-59
2022/04/01 03:56:01;;;;;;;6.17;2.30;;;;;;;;;;5060920;28;20131;-57
2022/04/01 03:58:32;;;;;;;3.67;2.13;;;;;;;;;;5060198;28;20128;-59
2022/04/01 04:01:00;;;;;;;4.80;2.20;;;;;;;;;;5061338;28;20563;-58
2022/04/01 04:03:27;;;;;;;6.13;2.53;;;;;;;;;;5057555;28;20489;-59
2022/04/01 04:05:55;;;;;;;5.63;2.13;;;;;;;;;;5062369;28;20634;-60
2022/04/01 04:08:22;;;;;;;;;;;;;;;;;;5058907;28;20071;-57
2022/04/01 04:10:52;;;;;;;3.57;2.27;;;;;;;;;;5056263;28;20467;-58
2022/04/01 04:13:25;;;;;;;7.50;2.47;;;;;;;;;;5062443;28;20080;-59
2022/04/01 04:16:04;;;;;;;7.20;2.13;;;;;;;;;;5062608;28;20053;-58
2022/04/01 04:18:42;;;;;;;5.97;2.17;;;;;;;;;;5062305;28;20125;-58
2022/04/01 04:21:10;;;;;;;3.43;2.27;;;;;;;;;;5057634;28;20072;-60
2022/04/01 04:23:47;;;;;;;4.60;2.10;;;;;;;;;;5062874;28;20460;-59
2022/04/01 04:26:16;;;;;;;7.13;2.50;;;;;;;;;;5060761;28;20064;-58
2022/04/01 04:28:50;;;;;;;3.50;1.93;;;;;;;;;;5060206;28;20045;-57
2022/04/01 04:31:28;;;;;;;6.20;2.33;;;;;;;;;;5058055;28;20132;-58
2022/04/01 04:33:55;;;;;;;7.73;2.07;;;;;;;;;;5058166;28;20056;-57
2022/04/01 04:36:36;;;;;;;4.97;2.50;;;;;;;;;;5060345;28;20044;-58
2022/04/01 04:39:05;;;;;;;3.43;2.00;;;;;;;;;;5064919;28;20140;-58
2022/04/01 04:41:32;;;;;;;11.07;2.60;;;;;;;;;;5061689;28;20143;-57
2022/04/01 04:43:59;;;;;;;6.15;2.10;;;;;;;;;;5059112;28;20135;-58
2022/04/01 04:46:26;;;;;;;;;;;;;;;;;;5058615;28;20076;-58
2022/04/01 04:48:53;;;;;;;6.10;2.53;;;;;;;;;;5064111;28;20342;-57
2022/04/01 04:51:24;;;;;;;6.43;2.67;;;;;;;;;;5058877;28;20086;-58
2022/04/01 04:53:59;;;;;;;3.67;2.30;;;;;;;;;;5061723;28;20135;-58
2022/04/01 04:56:26;;;;;;;4.57;2.30;;;;;;;;;;5046444;28;20048;-59
2022/04/01 04:58:53;;;;;;;5.43;2.47;;;;;;;;;;5061346;28;20049;-56
2022/04/01 05:01:38;;;;;;;9.40;2.50;;;;;;;;;;5064062;28;20083;-58
2022/04/01 05:04:13;;;;;;;8.03;3.00;;;;;;;;;;5044013;28;20512;-58
2022/04/01 05:07:03;;;;;;;11.30;2.97;;;;;;;;;;5061706;28;20464;-58
2022/04/01 05:09:34;;;;;;;8.30;2.47;;;;;;;;;;5057760;28;20156;-56
2022/04/01 05:12:09;;;;;;;8.50;2.83;;;;;;;;;;5060667;28;20080;-58
2022/04/01 05:14:40;;;;;;;8.27;2.60;;;;;;;;;;5062798;28;20079;-59
2022/04/01 05:17:19;;;;;;;5.77;2.83;;;;;;;;;;5059828;28;20128;-58
2022/04/01 05:19:53;;;;;;;5.97;2.57;;;;;;;;;;5060128;28;20108;-59
2022/04/01 05:22:29;;;;;;;6.28;2.40;;;;;;;;;;5058577;28;20172;-59
2022/04/01 05:24:59;;;;;;;6.33;2.30;;;;;;;;;;5062615;28;20049;-59
2022/04/01 05:27:28;;;;;;;6.43;2.50;;;;;;;;;;5063868;28;20083;-58
2022/04/01 05:30:12;;;;;;;6.43;2.40;;;;;;;;;;5059838;28;20480;-58
2022/04/01 05:32:48;;;;;;;3.77;2.27;;;;;;;;;;5058292;28;20452;-59
2022/04/01 05:35:16;;;;;;;2.97;2.27;;;;;;;;;;5059510;28;20125;-58
2022/04/01 05:37:42;;;;;;;;;;;;;;;;;;5056773;28;20468;-60
2022/04/01 05:40:10;;;;;;;4.70;2.17;;;;;;;;;;5061227;28;20015;-59
2022/04/01 05:42:36;;;;;;;5.40;2.75;;;;;;;;;;5062685;28;20135;-59
2022/04/01 05:45:03;;;;;;;2.37;1.83;;;;;;;;;;5061538;28;20088;-59
2022/04/01 05:47:32;;;;;;;4.07;2.20;;;;;;;;;;5061296;28;20349;-59
2022/04/01 05:49:59;;;;;;;5.73;2.40;;;;;;;;;;5064453;28;20048;-60
2022/04/01 05:52:27;;;;;;;5.13;2.45;;;;;;;;;;5060583;28;20077;-59
2022/04/01 05:55:01;;;;;;;8.40;3.13;;;;;;;;;;5055832;28;20135;-59
2022/04/01 05:57:27;;;;;;;4.05;2.03;;;;;;;;;;5057603;28;20512;-59
2022/04/01 05:59:53;;;;;;;5.70;2.73;;;;;;;;;;5061862;28;20099;-59
2022/04/01 06:02:32;;;;;;;8.77;3.10;;;;;;;;;;5056721;28;20385;-60
2022/04/01 06:05:08;;;;;;;8.47;2.97;;;;;;;;;;5057465;28;20563;-60
2022/04/01 06:07:47;;;;;;;6.30;3.10;;;;;;;;;;5058054;28;20045;-60
2022/04/01 06:10:21;;;;;;;7.07;3.03;;;;;;;;;;5055779;28;20287;-60
2022/04/01 06:12:54;;;;;;;7.40;3.27;;;;;;;;;;5053674;28;20516;-60
2022/04/01 06:15:21;;;;;;;3.93;2.47;;;;;;;;;;5058374;28;20562;-60
2022/04/01 06:17:59;;;;;;;7.27;3.50;;;;;;;;;;5058829;28;20080;-60
2022/04/01 06:20:30;;;;;;;6.27;3.20;;;;;;;;;;5058190;28;20548;-60
2022/04/01 06:23:03;;;;;;;8.60;3.60;;;;;;;;;;5060073;28;20084;-60
2022/04/01 06:25:32;;;;;;;13.93;3.50;;;;;;;;;;5059185;28;20045;-60
2022/04/01 06:28:24;;;;;;;7.10;3.10;;;;;;;;;;5054932;28;20476;-60
2022/04/01 06:31:03;;;;;;;9.25;3.33;;;;;;;;;;5062832;28;20507;-60
2022/04/01 06:33:40;;;;;;;10.77;3.70;;;;;;;;;;5058320;28;20049;-61
2022/04/01 06:36:13;;;;;;;13.00;3.83;;;;;;;;;;5058075;28;20088;-61
2022/04/01 06:38:39;;;;;;;6.10;3.83;;;;;;;;;;5056499;28;20399;-61
2022/04/01 06:41:07;;;;;;;6.43;2.57;;;;;;;;;;5048078;28;20057;-60
2022/04/01 06:43:38;;;;;;;5.40;3.10;;;;;;;;;;5033392;28;20076;-61
2022/04/01 06:46:05;;;;;;;9.60;2.53;;;;;;;;;;5037588;28;20106;-61
2022/04/01 06:48:31;;;;;;;6.72;3.85;;;;;;;;;;5036071;28;20800;-61
2022/04/01 06:50:58;;;;;;;7.68;2.97;;;;;;;;;;5038611;28;20092;-61
2022/04/01 06:53:25;;;;;;;9.18;3.72;;;;;;;;;;5039065;28;20049;-61
2022/04/01 06:55:53;;;;;;;8.10;4.03;;;;;;;;;;5035888;28;20085;-61
2022/04/01 06:58:26;;;;;;;13.60;4.55;;;;;;;;;;5027972;28;20375;-61
2022/04/01 07:00:53;;;;;;;11.13;4.07;;;;;;;;;;5036365;28;20056;-61
2022/04/01 07:03:21;;;;;;;6.88;3.17;;;;;;;;;;5034951;28;20080;-62
2022/04/01 07:05:55;;;;;;;9.25;3.83;;;;;;;;;;5034351;28;20056;-62
2022/04/01 07:08:21;;;;;;;6.13;2.55;;;;;;;;;;5039636;28;20050;-62
2022/04/01 07:10:48;;;;;;;6.95;3.65;;;;;;;;;;5041309;28;20057;-62
2022/04/01 07:13:18;;;;;;;7.20;2.88;;;;;;;;;;5037096;28;20164;-62
2022/04/01 07:15:45;;;;;;;6.00;2.63;;;;;;;;;;5043631;28;20076;-62
2022/04/01 07:18:12;;;;;;;11.48;2.83;;;;;;;;;;5040129;28;20188;-62
2022/04/01 07:20:46;;;;;;;6.00;2.17;;;;;;;;;;5028673;28;20073;-63
2022/04/01 07:23:12;;;;;;;4.40;1.88;;;;;;;;;;5041295;28;20095;-62
2022/04/01 07:25:39;;;;;;;5.95;1.90;;;;;;;;;;5038586;28;20084;-61
2022/04/01 07:28:19;;;;;;;5.75;2.72;;;;;;;;;;5041182;28;20059;-61
2022/04/01 07:30:45;;;;;;;8.00;2.05;;;;;;;;;;5041940;28;20080;-61
2022/04/01 07:33:12;;;;;;;5.07;1.70;;;;;;;;;;5044747;28;20085;-61
2022/04/01 07:35:39;;;;;;;6.88;1.83;;;;;;;;;;5038698;28;20093;-61
2022/04/01 07:38:06;;;;;;;4.27;1.97;;;;;;;;;;5038789;28;20124;-61
2022/04/01 07:40:33;;;;;;;2.72;1.38;;;;;;;;;;5044129;28;20480;-61
2022/04/01 07:43:00;;;;;;;2.30;1.75;;;;;;;;;;5038683;28;20054;-62
2022/04/01 07:45:26;;;;;;;6.43;1.90;;;;;;;;;;5041050;28;20080;-62
2022/04/01 07:47:53;;;;;;;4.85;1.80;;;;;;;;;;5040437;28;20073;-62
2022/04/01 07:50:20;;;;;;;2.45;1.52;;;;;;;;;;5039677;28;20052;-62
2022/04/01 07:52:46;;;;;;;6.88;1.88;;;;;;;;;;5041029;28;20053;-62
2022/04/01 07:55:14;;;;;;;3.25;2.10;;;;;;;;;;5043389;28;20136;-62
2022/04/01 07:57:41;;;;;;;6.88;1.98;;;;;;;;;;5041321;28;20052;-62
2022/04/01 08:00:12;;;;;;;4.25;2.15;;;;;;;;;;5042273;28;20061;-62
2022/04/01 08:02:42;;;;;;;5.72;2.10;;;;;;;;;;5040111;28;20162;-63
2022/04/01 08:05:16;;;;;;;5.28;1.80;;;;;;;;;;5044137;28;20111;-63
2022/04/01 08:07:42;;;;;;;2.30;1.52;;;;;;;;;;5040259;28;20133;-63
2022/04/01 08:10:09;;;;;;;4.75;2.03;;;;;;;;;;5041765;28;20085;-63
2022/04/01 08:12:45;;;;;;;3.00;1.67;;;;;;;;;;5041379;28;20176;-63
2022/04/01 08:15:12;;;;;;;3.00;1.65;;;;;;;;;;5045213;28;20063;-63
2022/04/01 08:17:39;;;;;;;7.15;1.95;;;;;;;;;;5043566;28;20045;-63
2022/04/01 08:20:13;;;;;;;5.70;2.10;;;;;;;;;;5044120;28;20088;-63
2022/04/01 08:22:40;;;;;;;7.00;1.98;;;;;;;;;;5041352;28;20133;-64
2022/04/01 08:25:07;;;;;;;7.97;1.98;;;;;;;;;;5037683;28;20088;-63
2022/04/01 08:27:41;;;;;;;4.55;1.90;;;;;;;;;;5040180;28;20703;-64
2022/04/01 08:30:07;;;;;;;5.88;1.83;;;;;;;;;;5041866;28;20092;-64
2022/04/01 08:32:35;;;;;;;7.30;2.22;;;;;;;;;;5039888;28;20537;-64
2022/04/01 08:35:05;;;;;;;3.42;1.60;;;;;;;;;;5042160;28;20045;-64
2022/04/01 08:37:32;;;;;;;;;;;;;;;;;;5041338;28;20082;-64
2022/04/01 08:39:58;;;;;;;2.25;1.23;;;;;;;;;;5040477;28;19973;-64
2022/04/01 08:42:28;;;;;;;4.25;1.60;;;;;;;;;;5052082;28;20675;-64
2022/04/01 08:44:54;;;;;;;2.38;1.55;;;;;;;;;;5061869;28;20163;-64
2022/04/01 08:47:21;;;;;;;8.48;1.77;;;;;;;;;;5060588;28;20041;-64
2022/04/01 08:49:49;;;;;;;6.20;2.20;;;;;;;;;;5059796;28;20532;-64
2022/04/01 08:52:15;;;;;;;2.90;1.58;;;;;;;;;;5061063;28;20163;-64
2022/04/01 08:54:42;;;;;;;6.15;1.77;;;;;;;;;;5058419;28;20111;-65
2022/04/01 08:57:09;;;;;;;7.85;2.53;;;;;;;;;;5061379;28;20094;-64
2022/04/01 08:59:36;;;;;;;2.93;1.23;;;;;;;;;;5059100;28;20052;-65
2022/04/01 09:02:06;;;;;;;6.43;1.70;;;;;;;;;;5060044;28;20083;-65
2022/04/01 09:04:40;;;;;;;3.22;1.92;;;;;;;;;;5057962;28;20061;-65
2022/04/01 09:07:10;;;;;;;3.50;1.58;;;;;;;;;;5059085;28;20132;-64
2022/04/01 09:09:37;;;;;;;3.58;1.48;;;;;;;;;;5060768;28;20103;-66
2022/04/01 09:12:13;;;;;;;2.25;1.33;;;;;;;;;;5059210;28;20131;-65
2022/04/01 09:14:41;;;;;;;3.45;1.35;;;;;;;;;;5055601;28;20124;-65
2022/04/01 09:17:07;;;;;;;;;;;;;;;;;;5059431;28;20132;-66
2022/04/01 09:19:35;;;;;;;4.38;1.80;;;;;;;;;;5061968;28;20489;-66
2022/04/01 09:22:20;;;;;;;2.95;1.60;;;;;;;;;;5059917;28;20139;-66
2022/04/01 09:24:55;;;;;;;5.03;1.60;;;;;;;;;;5059836;28;20082;-66
2022/04/01 09:27:40;;;;;;;4.10;1.42;;;;;;;;;;5058302;28;20667;-66
2022/04/01 09:30:15;;;;;;;2.75;1.52;;;;;;;;;;5059006;28;20146;-66
2022/04/01 09:32:43;;;;;;;3.63;1.45;;;;;;;;;;5060923;28;20057;-66
2022/04/01 09:35:11;;;;;;;;;;;;;;;;;;5061167;28;20134;-66
2022/04/01 09:37:48;;;;;;;3.40;1.90;;;;;;;;;;5058048;28;20011;-67
2022/04/01 09:40:20;;;;;;;4.70;1.80;;;;;;;;;;5061193;28;20072;-66
2022/04/01 09:42:55;;;;;;;4.75;1.92;;;;;;;;;;5058707;28;20049;-66
2022/04/01 09:45:23;;;;;;;3.90;1.77;;;;;;;;;;5057700;28;20076;-66
2022/04/01 09:48:17;;;;;;;4.20;1.70;;;;;;;;;;5057778;28;20056;-66
2022/04/01 09:50:53;;;;;;;4.22;1.73;;;;;;;;;;5061615;28;20535;-66
2022/04/01 09:53:19;;;;;;;4.28;1.83;;;;;;;;;;5056980;28;20488;-66
2022/04/01 09:55:48;;;;;;;6.07;1.50;;;;;;;;;;5057124;28;20135;-66
2022/04/01 09:58:15;;;;;;;4.00;1.80;;;;;;;;;;5066654;28;20080;-66
2022/04/01 10:00:43;;;;;;;4.20;1.85;;;;;;;;;;5063304;28;20080;-66
2022/04/01 10:03:10;;;;;;;4.57;1.75;;;;;;;;;;5061981;28;20044;-66
2022/04/01 10:05:37;;;;;;;2.25;1.60;;;;;;;;;;5058290;28;20131;-66
2022/04/01 10:08:05;;;;;;;4.10;1.98;;;;;;;;;;5060190;28;20501;-66
2022/04/01 10:10:36;;;;;;;6.32;2.30;;;;;;;;;;5057134;28;20136;-66
2022/04/01 10:13:09;;;;;;;2.50;1.60;;;;;;;;;;5058989;28;20478;-66
2022/04/01 10:15:39;;;;;;;9.02;2.35;;;;;;;;;;5058285;28;20140;-66
2022/04/01 10:18:06;;;;;;;4.82;1.80;;;;;;;;;;5056198;28;20103;-65
2022/04/01 10:20:34;;;;;;;3.28;1.63;;;;;;;;;;5056624;28;20084;-65
2022/04/01 10:23:08;;;;;;;3.35;1.88;;;;;;;;;;5058323;28;20149;-65
2022/04/01 10:25:47;;;;;;;9.07;1.92;;;;;;;;;;5057950;28;20128;-65
2022/04/01 10:28:20;;;;;;;4.38;1.63;;;;;;;;;;5057847;28;20128;-65
2022/04/01 10:30:53;;;;;;;4.87;1.80;;;;;;;;;;5058134;28;20128;-65
2022/04/01 10:33:24;;;;;;;6.43;1.67;;;;;;;;;;5060063;28;20424;-65
2022/04/01 10:35:51;;;;;;;4.63;1.58;;;;;;;;;;5056446;28;20053;-66
2022/04/01 10:38:19;;;;;;;3.97;2.00;;;;;;;;;;5059677;28;20826;-65
2022/04/01 10:40:51;;;;;;;3.33;1.60;;;;;;;;;;5062250;28;20131;-66
2022/04/01 10:43:20;;;;;;;5.05;2.15;;;;;;;;;;5056058;28;20136;-65
2022/04/01 10:45:57;;;;;;;4.43;1.70;;;;;;;;;;5060903;28;20127;-66
2022/04/01 10:54:01;;;;;;;3.35;1.90;;;;;;;;;;5062945;28;20048;-66
2022/04/01 10:56:29;;;;;;;5.18;1.48;;;;;;;;;;5054200;28;20503;-66
2022/04/01 10:59:07;;;;;;;5.25;1.80;;;;;;;;;;5059799;28;20087;-66
2022/04/01 11:01:35;;;;;;;4.32;1.55;;;;;;;;;;5056837;28;20081;-66
2022/04/01 11:04:22;;;;;;;3.17;1.33;;;;;;;;;;5051795;28;20045;-66
2022/04/01 11:06:55;;;;;;;3.30;1.38;;;;;;;;;;5057308;28;20045;-66
2022/04/01 11:09:40;;;;;;;1.73;1.60;;;;;;;;;;5054633;28;20052;-67
2022/04/01 11:12:17;;;;;;;2.30;1.30;;;;;;;;;;5055859;28;20463;-66
2022/04/01 11:17:36;;;;;;;4.30;1.70;;;;;;;;;;5052346;28;20056;-66
2022/04/01 11:20:04;;;;;;;4.10;1.80;;;;;;;;;;5059941;28;20143;-66
2022/04/01 11:22:34;;;;;;;4.68;1.83;;;;;;;;;;5062241;28;20130;-66
2022/04/01 11:25:01;;;;;;;2.92;1.70;;;;;;;;;;5056333;28;20140;-65
2022/04/01 11:27:28;;;;;;;6.57;2.17;;;;;;;;;;5055318;28;20052;-66
2022/04/01 11:29:54;;;;;;;;;;;;;;;;;;5059915;28;20077;-66
2022/04/01 11:32:22;;;;;;;7.15;2.03;;;;;;;;;;5059867;28;20023;-66
2022/04/01 11:34:55;;;;;;;4.15;2.28;;;;;;;;;;5056800;28;20080;-65
2022/04/01 11:37:23;;;;;;;5.20;1.80;;;;;;;;;;5056949;28;20111;-66
2022/04/01 11:40:06;;;;;;;4.43;1.83;;;;;;;;;;5058945;28;20261;-66
2022/04/01 11:42:32;;;;;;;6.25;2.33;;;;;;;;;;5045446;28;20277;-66
2022/04/01 11:45:01;;;;;;;7.03;2.22;;;;;;;;;;5036722;28;20081;-66
2022/04/01 11:47:35;;;;;;;6.00;2.17;;;;;;;;;;5041484;28;20085;-66
2022/04/01 11:50:09;;;;;;;2.95;2.00;;;;;;;;;;5040150;28;20061;-66
2022/04/01 11:52:39;;;;;;;6.35;2.13;;;;;;;;;;5035047;28;20128;-65
2022/04/01 11:55:10;;;;;;;6.00;2.20;;;;;;;;;;5034044;28;20100;-66
2022/04/01 11:57:37;;;;;;;5.40;2.00;;;;;;;;;;5042094;28;20136;-66
2022/04/01 12:00:10;;;;;;;5.88;2.28;;;;;;;;;;5039168;28;20132;-66
2022/04/01 12:02:52;;;;;;;4.65;2.13;;;;;;;;;;5045581;28;20127;-65
2022/04/01 12:05:19;;;;;;;7.18;2.17;;;;;;;;;;5039901;28;20156;-65
2022/04/01 12:10:42;;;;;;;5.13;2.40;;;;;;;;;;5039728;28;20052;-66
2022/04/01 12:13:10;;;;;;;5.90;2.17;;;;;;;;;;5041277;28;20812;-65
2022/04/01 12:15:38;;;;;;;7.03;2.78;;;;;;;;;;5043518;28;20452;-65
2022/04/01 12:18:06;;;;;;;3.25;2.00;;;;;;;;;;5038566;28;20048;-65
2022/04/01 12:20:39;;;;;;;5.35;2.38;;;;;;;;;;5035701;28;20080;-65
2022/04/01 12:23:12;;;;;;;4.80;1.75;;;;;;;;;;5044159;28;20096;-65
2022/04/01 12:25:47;;;;;;;3.80;2.03;;;;;;;;;;5039460;28;20114;-65
2022/04/01 12:28:15;;;;;;;3.35;2.03;;;;;;;;;;5036553;28;20800;-65
2022/04/01 12:30:46;;;;;;;4.88;2.05;;;;;;;;;;5044055;28;20052;-65
2022/04/01 12:33:24;;;;;;;5.07;2.07;;;;;;;;;;5041238;28;20049;-65
2022/04/01 12:36:04;;;;;;;7.28;2.03;;;;;;;;;;5040603;28;20121;-65
2022/04/01 12:38:43;;;;;;;6.93;2.10;;;;;;;;;;5042103;28;20136;-65
2022/04/01 12:41:18;;;;;;;2.35;1.65;;;;;;;;;;5044852;28;20091;-64
2022/04/01 12:43:46;;;;;;;3.13;1.77;;;;;;;;;;5059970;28;20127;-65
2022/04/01 12:46:17;;;;;;;4.28;1.90;;;;;;;;;;5064462;28;20091;-64
2022/04/01 12:48:54;;;;;;;7.15;2.53;;;;;;;;;;5064046;28;20119;-65
2022/04/01 12:51:23;;;;;;;2.80;1.65;;;;;;;;;;5061196;28;20127;-65
2022/04/01 12:54:02;;;;;;;3.28;1.80;;;;;;;;;;5060711;28;20064;-65
2022/04/01 12:56:33;;;;;;;6.32;1.85;;;;;;;;;;5060515;28;20049;-64
2022/04/01 12:59:04;;;;;;;4.05;1.88;;;;;;;;;;5058078;28;20143;-65
2022/04/01 13:01:32;;;;;;;5.70;1.70;;;;;;;;;;5063451;28;20127;-65
2022/04/01 13:03:59;;;;;;;2.67;1.83;;;;;;;;;;5059359;28;20049;-64
2022/04/01 13:06:26;;;;;;;3.00;1.50;;;;;;;;;;5058776;28;20087;-64
2022/04/01 13:09:00;;;;;;;3.13;1.50;;;;;;;;;;5059833;28;20098;-64
2022/04/01 13:11:39;;;;;;;2.72;1.20;;;;;;;;;;5060938;28;20131;-64
2022/04/01 13:14:19;;;;;;;3.90;1.20;;;;;;;;;;5059493;28;20067;-64
2022/04/01 13:16:46;;;;;;;3.15;1.10;;;;;;;;;;5059115;28;20082;-65
2022/04/01 13:19:27;;;;;;;1.92;1.20;;;;;;;;;;5057696;28;20064;-65
2022/04/01 13:21:56;;;;;;;6.28;1.92;;;;;;;;;;5059377;28;20103;-65
2022/04/01 13:24:24;;;;;;;4.38;1.63;;;;;;;;;;5058336;28;20110;-64
2022/04/01 13:26:51;;;;;;;2.45;1.05;;;;;;;;;;5057645;28;20056;-64
2022/04/01 13:29:17;;;;;;;4.47;1.30;;;;;;;;;;5058968;28;20115;-64
2022/04/01 13:31:51;;;;;;;2.58;0.90;;;;;;;;;;5059505;28;20079;-64
2022/04/01 13:34:20;;;;;;;3.78;1.13;;;;;;;;;;5058636;28;20055;-64
2022/04/01 13:36:48;;;;;;;5.35;1.20;;;;;;;;;;5061750;28;20107;-64
2022/04/01 13:39:28;;;;;;;2.17;1.00;;;;;;;;;;5059022;28;20146;-65
2022/04/01 13:41:56;;;;;;;3.90;1.40;;;;;;;;;;5058205;28;20079;-65
2022/04/01 13:44:23;;;;;;;0.95;0.85;;;;;;;;;;5058507;28;20131;-65
2022/04/01 13:46:49;;;;;;;2.63;1.37;;;;;;;;;;5060259;28;20141;-65
2022/04/01 13:49:16;;;;;;;2.85;1.05;;;;;;;;;;5056661;28;20048;-65
2022/04/01 13:51:43;;;;;;;2.95;1.30;;;;;;;;;;5062914;28;20084;-65
2022/04/01 13:54:10;;;;;;;2.08;1.08;;;;;;;;;;5060107;28;20052;-65
2022/04/01 13:56:37;;;;;;;0.98;0.88;;;;;;;;;;5058132;28;20085;-65
2022/04/01 13:59:09;;;;;;;2.10;1.50;;;;;;;;;;5063274;28;20087;-65
2022/04/01 14:01:36;;;;;;;2.83;1.17;;;;;;;;;;5063412;28;20052;-65
2022/04/01 14:04:03;;;;;;;2.43;1.27;;;;;;;;;;5055798;28;20052;-65
2022/04/01 14:06:37;;;;;;;5.55;1.90;;;;;;;;;;5058298;28;20709;-65
2022/04/01 14:09:07;;;;;;;3.70;2.17;;;;;;;;;;5059608;28;20048;-64
2022/04/01 14:11:54;;;;;;;4.68;2.40;;;;;;;;;;5058022;28;20053;-64
2022/04/01 14:14:20;;;;;;;4.72;1.70;;;;;;;;;;5057147;28;20076;-64
2022/04/01 14:16:47;;;;;;;3.85;1.30;;;;;;;;;;5060481;28;20171;-64
2022/04/01 14:19:13;;;;;;;7.75;2.50;;;;;;;;;;5061556;28;20143;-64
2022/04/01 14:21:49;;;;;;;3.33;1.20;;;;;;;;;;5058870;28;20135;-64
2022/04/01 14:24:16;;;;;;;4.65;1.85;;;;;;;;;;5057771;28;20135;-64
2022/04/01 14:26:49;;;;;;;3.28;1.38;;;;;;;;;;5060723;28;20041;-64
2022/04/01 14:32:01;;;;;;;2.88;1.50;;;;;;;;;;5061354;28;20048;-64
2022/04/01 14:34:29;;;;;;;2.60;1.50;;;;;;;;;;5060206;28;20044;-64
2022/04/01 14:36:56;;;;;;;4.38;1.80;;;;;;;;;;5059611;28;20076;-64
2022/04/01 14:39:22;;;;;;;2.55;1.52;;;;;;;;;;5057390;28;20240;-64
2022/04/01 14:42:01;;;;;;;2.03;1.35;;;;;;;;;;5053399;28;20080;-64
2022/04/01 14:44:28;;;;;;;5.05;1.63;;;;;;;;;;5057997;28;20113;-63
2022/04/01 14:46:55;;;;;;;3.53;1.65;;;;;;;;;;5054780;28;20076;-63
2022/04/01 14:49:24;;;;;;;5.60;1.80;;;;;;;;;;5053223;28;20053;-63
2022/04/01 14:51:58;;;;;;;3.95;1.52;;;;;;;;;;5055766;28;20063;-63
2022/04/01 14:54:24;;;;;;;1.83;1.10;;;;;;;;;;5062349;28;20503;-63
2022/04/01 14:56:51;;;;;;;2.70;1.38;;;;;;;;;;5057400;28;20136;-63
2022/04/01 14:59:20;;;;;;;3.90;1.02;;;;;;;;;;5061380;28;20179;-63
2022/04/01 15:01:46;;;;;;;2.90;1.33;;;;;;;;;;5055174;28;20128;-63
2022/04/01 15:04:13;;;;;;;1.63;1.25;;;;;;;;;;5057489;28;20588;-64
2022/04/01 15:06:48;;;;;;;3.40;1.38;;;;;;;;;;5057777;28;20094;-63
2022/04/01 15:09:15;;;;;;;3.28;1.88;;;;;;;;;;5060005;28;20045;-63
2022/04/01 15:11:42;;;;;;;2.35;1.50;;;;;;;;;;5058160;28;20040;-63
2022/04/01 15:14:08;;;;;;;3.38;1.35;;;;;;;;;;5059143;28;20114;-63
2022/04/01 15:16:35;;;;;;;4.65;1.33;;;;;;;;;;5058919;28;20041;-63
2022/04/01 15:19:01;;;;;;;4.50;1.42;;;;;;;;;;5058576;28;20144;-64
2022/04/01 15:21:28;;;;;;;2.05;1.35;;;;;;;;;;5058871;28;20127;-64